createdAt,value
2023-03-26T00:01:41.830Z,11.72
2023-03-26T00:04:10.830Z,11.72
2023-03-26T00:06:40.640Z,11.70
2023-03-26T00:09:13.621Z,11.67
2023-03-26T00:11:43.750Z,11.64
2023-03-26T00:14:14.264Z,11.61
2023-03-26T00:16:42.974Z,11.58
2023-03-26T00:19:12.875Z,11.55
2023-03-26T00:21:41.705Z,11.53
2023-03-26T00:24:15.488Z,11.52
2023-03-26T00:26:44.777Z,11.50
2023-03-26T00:29:15.875Z,11.47
2023-03-26T00:31:46.604Z,11.44
2023-03-26T00:34:18.812Z,11.41
2023-03-26T00:36:47.646Z,11.40
2023-03-26T00:39:18.097Z,11.40
2023-03-26T00:41:46.524Z,11.42
2023-03-26T00:44:14.907Z,11.45
2023-03-26T00:46:43.010Z,11.48
2023-03-26T00:49:14.970Z,11.50
2023-03-26T00:51:43.830Z,11.53
2023-03-26T00:54:12.942Z,11.57
2023-03-26T00:56:41.446Z,11.60
2023-03-26T00:59:09.992Z,11.63
2023-03-26T01:01:38.650Z,11.66
2023-03-26T01:04:31.817Z,11.68
2023-03-26T01:07:11.473Z,11.71
2023-03-26T01:09:43.079Z,11.71
2023-03-26T01:12:17.223Z,11.69
2023-03-26T01:14:47.901Z,11.67
2023-03-26T01:17:18.004Z,11.66
2023-03-26T01:20:15.265Z,11.64
2023-03-26T01:22:49.754Z,11.62
2023-03-26T01:25:19.089Z,11.61
2023-03-26T01:27:52.171Z,11.62
2023-03-26T01:30:35.399Z,11.63
2023-03-26T01:33:03.853Z,11.65
2023-03-26T01:35:35.393Z,11.67
2023-03-26T01:38:23.376Z,11.70
2023-03-26T01:41:11.000Z,11.72
2023-03-26T01:44:00.883Z,11.74
2023-03-26T01:46:36.409Z,11.76
2023-03-26T01:49:06.353Z,11.78
2023-03-26T01:51:35.876Z,11.81
2023-03-26T01:54:08.903Z,11.84
2023-03-26T01:57:01.628Z,11.86
2023-03-26T02:00:12.271Z,11.87
2023-03-26T02:03:18.005Z,11.88
2023-03-26T02:05:56.725Z,11.88
2023-03-26T02:08:59.523Z,11.87
2023-03-26T02:11:35.535Z,11.84
2023-03-26T02:14:07.074Z,11.80
2023-03-26T02:16:35.544Z,11.76
2023-03-26T02:19:04.573Z,11.73
2023-03-26T02:21:34.240Z,11.66
2023-03-26T02:24:03.454Z,11.61
2023-03-26T02:26:35.974Z,11.56
2023-03-26T02:29:19.524Z,11.50
2023-03-26T02:31:48.987Z,11.47
2023-03-26T02:34:17.538Z,11.45
2023-03-26T02:36:53.250Z,11.42
2023-03-26T02:39:22.180Z,11.41
2023-03-26T02:41:57.802Z,11.41
2023-03-26T02:44:27.514Z,11.39
2023-03-26T02:47:01.940Z,11.37
2023-03-26T02:49:49.053Z,11.35
2023-03-26T02:52:23.269Z,11.31
2023-03-26T02:54:52.160Z,11.26
2023-03-26T02:57:27.849Z,11.22
2023-03-26T03:00:15.648Z,11.18
2023-03-26T03:02:48.439Z,11.13
2023-03-26T03:05:43.411Z,11.08
2023-03-26T03:08:18.566Z,11.04
2023-03-26T03:11:11.929Z,11.01
2023-03-26T03:13:49.832Z,10.99
2023-03-26T03:16:27.590Z,10.97
2023-03-26T03:18:58.146Z,10.96
2023-03-26T03:21:34.327Z,10.95
2023-03-26T03:24:03.132Z,10.94
2023-03-26T03:26:36.719Z,10.93
2023-03-26T03:29:28.390Z,10.93
2023-03-26T03:31:57.337Z,10.93
2023-03-26T03:34:46.030Z,10.92
2023-03-26T03:37:14.332Z,10.90
2023-03-26T03:39:48.185Z,10.90
2023-03-26T03:42:19.222Z,10.89
2023-03-26T03:44:48.007Z,10.85
2023-03-26T03:47:48.866Z,10.82
2023-03-26T03:50:21.325Z,10.74
2023-03-26T03:53:01.280Z,10.66
2023-03-26T03:55:30.171Z,10.61
2023-03-26T03:57:58.548Z,10.54
2023-03-26T04:00:27.442Z,10.51
2023-03-26T04:03:09.221Z,10.46
2023-03-26T04:05:37.709Z,10.45
2023-03-26T04:08:06.539Z,10.43
2023-03-26T04:10:46.250Z,10.40
2023-03-26T04:13:15.955Z,10.37
2023-03-26T04:16:05.193Z,10.36
2023-03-26T04:18:33.614Z,10.35
2023-03-26T04:21:09.162Z,10.37
2023-03-26T04:23:37.324Z,10.37
2023-03-26T04:26:17.394Z,10.36
2023-03-26T04:29:12.920Z,10.36
2023-03-26T04:31:43.377Z,10.37
2023-03-26T04:34:26.372Z,10.38
2023-03-26T04:37:05.264Z,10.39
2023-03-26T04:39:36.514Z,10.41
2023-03-26T04:42:33.601Z,10.41
2023-03-26T04:45:17.695Z,10.40
2023-03-26T04:47:48.938Z,10.38
2023-03-26T04:50:17.552Z,10.36
2023-03-26T04:52:46.742Z,10.36
2023-03-26T04:56:01.830Z,10.36
2023-03-26T04:58:50.578Z,10.38
2023-03-26T05:01:20.137Z,10.40
2023-03-26T05:03:48.602Z,10.43
2023-03-26T05:06:18.008Z,10.46
2023-03-26T05:08:46.544Z,10.50
2023-03-26T05:11:22.506Z,10.57
2023-03-26T05:13:50.788Z,10.61
2023-03-26T05:16:22.033Z,10.62
2023-03-26T05:18:59.311Z,10.65
2023-03-26T05:21:30.825Z,10.68
2023-03-26T05:23:59.660Z,10.70
2023-03-26T05:26:29.295Z,10.75
2023-03-26T05:28:57.752Z,10.76
2023-03-26T05:31:31.352Z,10.78
2023-03-26T05:34:00.764Z,10.79
2023-03-26T05:36:29.450Z,10.81
2023-03-26T05:39:17.068Z,10.82
2023-03-26T05:42:04.184Z,10.82
2023-03-26T05:44:42.909Z,10.82
2023-03-26T05:47:18.456Z,10.83
2023-03-26T05:49:47.150Z,10.85
2023-03-26T05:52:19.125Z,10.87
2023-03-26T05:55:10.630Z,10.89
2023-03-26T05:57:58.160Z,10.93
2023-03-26T06:01:06.041Z,10.98
2023-03-26T06:03:47.365Z,11.00
2023-03-26T06:06:20.739Z,11.03
2023-03-26T06:09:02.345Z,11.04
2023-03-26T06:11:32.464Z,11.07
2023-03-26T06:14:02.374Z,11.07
2023-03-26T06:16:31.339Z,11.05
2023-03-26T06:19:28.921Z,11.04
2023-03-26T06:22:01.399Z,11.04
2023-03-26T06:24:39.501Z,11.03
2023-03-26T06:27:26.522Z,11.06
2023-03-26T06:30:15.592Z,11.09
2023-03-26T06:33:08.844Z,11.11
2023-03-26T06:35:45.618Z,11.12
2023-03-26T06:38:15.130Z,11.13
2023-03-26T06:40:44.018Z,11.12
2023-03-26T06:43:36.466Z,11.14
2023-03-26T06:46:23.711Z,11.21
2023-03-26T06:49:11.316Z,11.29
2023-03-26T06:51:52.086Z,11.37
2023-03-26T06:54:39.304Z,11.42
2023-03-26T06:57:28.781Z,11.46
2023-03-26T07:00:29.724Z,11.51
2023-03-26T07:03:17.453Z,11.47
2023-03-26T07:06:04.829Z,11.45
2023-03-26T07:08:51.704Z,11.43
2023-03-26T07:11:40.360Z,11.40
2023-03-26T07:14:44.163Z,11.34
2023-03-26T07:17:28.230Z,11.24
2023-03-26T07:20:08.885Z,11.05
2023-03-26T07:22:38.173Z,10.85
2023-03-26T07:25:30.105Z,10.67
2023-03-26T07:28:34.017Z,10.57
2023-03-26T07:31:37.652Z,10.48
2023-03-26T07:34:39.815Z,10.49
2023-03-26T07:37:44.105Z,10.80
2023-03-26T07:40:57.652Z,11.63
2023-03-26T07:44:08.321Z,12.72
2023-03-26T07:46:37.521Z,13.70
2023-03-26T07:49:24.714Z,14.45
2023-03-26T07:52:13.907Z,14.60
2023-03-26T07:54:56.953Z,14.65
2023-03-26T07:58:23.713Z,14.51
2023-03-26T08:01:52.297Z,14.37
2023-03-26T08:04:48.680Z,14.20
2023-03-26T08:07:58.761Z,14.22
2023-03-26T08:11:03.900Z,14.70
2023-03-26T08:13:45.185Z,15.26
2023-03-26T08:16:23.300Z,15.28
2023-03-26T08:19:03.654Z,15.40
2023-03-26T08:21:48.825Z,15.99
2023-03-26T08:24:39.182Z,16.51
2023-03-26T08:27:29.642Z,17.26
2023-03-26T08:30:08.543Z,17.80
2023-03-26T08:32:37.664Z,18.29
2023-03-26T08:35:06.738Z,19.02
2023-03-26T08:37:35.314Z,19.74
2023-03-26T08:40:03.895Z,20.47
2023-03-26T08:42:56.956Z,21.05
2023-03-26T08:45:53.913Z,21.62
2023-03-26T08:48:55.064Z,22.25
2023-03-26T08:51:41.878Z,22.90
2023-03-26T08:54:25.604Z,22.93
2023-03-26T08:57:15.930Z,23.14
2023-03-26T09:00:06.101Z,23.37
2023-03-26T09:02:53.249Z,23.48
2023-03-26T09:05:21.591Z,23.46
2023-03-26T09:07:59.283Z,23.46
2023-03-26T09:10:46.831Z,23.63
2023-03-26T09:13:44.789Z,23.83
2023-03-26T09:16:28.288Z,23.97
2023-03-26T09:19:18.213Z,23.86
2023-03-26T09:22:06.663Z,23.70
2023-03-26T09:24:58.804Z,23.71
2023-03-26T09:28:10.598Z,23.81
2023-03-26T09:30:57.319Z,23.76
2023-03-26T09:33:28.626Z,23.68
2023-03-26T09:36:23.135Z,23.52
2023-03-26T09:39:00.503Z,23.54
2023-03-26T09:42:01.161Z,23.62
2023-03-26T09:44:36.096Z,23.66
2023-03-26T09:47:29.861Z,23.60
2023-03-26T09:50:10.657Z,23.56
2023-03-26T09:52:41.990Z,23.81
2023-03-26T09:55:44.895Z,24.19
2023-03-26T09:58:33.635Z,24.62
2023-03-26T10:01:16.395Z,25.02
2023-03-26T10:03:53.970Z,25.27
2023-03-26T10:06:41.580Z,25.51
2023-03-26T10:09:51.222Z,25.28
2023-03-26T10:12:20.205Z,25.32
2023-03-26T10:15:10.833Z,25.34
2023-03-26T10:18:02.498Z,25.38
2023-03-26T10:20:57.863Z,25.22
2023-03-26T10:23:45.380Z,25.15
2023-03-26T10:26:30.862Z,25.16
2023-03-26T10:29:15.832Z,25.14
2023-03-26T10:31:56.243Z,25.06
2023-03-26T10:35:06.547Z,25.01
2023-03-26T10:37:56.230Z,24.78
2023-03-26T10:40:35.778Z,24.67
2023-03-26T10:43:23.100Z,24.58
2023-03-26T10:46:10.799Z,24.45
2023-03-26T10:49:20.501Z,24.29
2023-03-26T10:51:57.314Z,24.38
2023-03-26T10:54:44.089Z,24.55
2023-03-26T10:57:43.983Z,24.36
2023-03-26T11:00:25.369Z,24.46
2023-03-26T11:03:18.424Z,24.66
2023-03-26T11:05:52.616Z,24.11
2023-03-26T11:08:44.167Z,23.83
2023-03-26T11:11:24.625Z,23.63
2023-03-26T11:14:35.169Z,23.48
2023-03-26T11:17:39.620Z,23.44
2023-03-26T11:20:13.831Z,23.48
2023-03-26T11:23:00.846Z,23.38
2023-03-26T11:25:38.238Z,22.98
2023-03-26T11:29:03.690Z,22.75
2023-03-26T11:31:58.556Z,22.62
2023-03-26T11:34:39.099Z,22.52
2023-03-26T11:37:16.212Z,22.46
2023-03-26T11:39:55.221Z,22.54
2023-03-26T11:42:25.877Z,22.64
2023-03-26T11:45:05.933Z,22.79
2023-03-26T11:47:43.725Z,23.10
2023-03-26T11:50:27.258Z,23.31
2023-03-26T11:53:20.730Z,23.40
2023-03-26T11:55:54.015Z,23.60
2023-03-26T11:59:07.753Z,23.83
2023-03-26T12:01:58.188Z,23.98
2023-03-26T12:04:38.207Z,23.73
2023-03-26T12:07:33.418Z,23.65
2023-03-26T12:10:17.953Z,23.51
2023-03-26T12:12:48.912Z,23.47
2023-03-26T12:15:20.254Z,23.44
2023-03-26T12:17:58.115Z,23.45
2023-03-26T12:20:26.700Z,23.54
2023-03-26T12:22:59.661Z,23.66
2023-03-26T12:25:38.961Z,23.78
2023-03-26T12:28:13.929Z,23.80
2023-03-26T12:30:54.394Z,23.77
2023-03-26T12:33:28.087Z,23.68
2023-03-26T12:36:01.160Z,23.75
2023-03-26T12:38:37.455Z,23.88
2023-03-26T12:44:43.720Z,23.94
2023-03-26T12:44:56.579Z,23.89
2023-03-26T12:47:59.508Z,23.76
2023-03-26T12:50:34.258Z,23.71
2023-03-26T12:53:12.838Z,23.60
2023-03-26T12:56:06.910Z,23.54
2023-03-26T12:58:45.130Z,23.54
2023-03-26T13:01:16.867Z,23.52
2023-03-26T13:04:14.365Z,23.49
2023-03-26T13:07:01.646Z,23.27
2023-03-26T13:09:53.228Z,22.99
2023-03-26T13:12:35.712Z,22.76
2023-03-26T13:15:18.130Z,22.67
2023-03-26T13:17:56.152Z,22.71
2023-03-26T13:20:49.197Z,22.61
2023-03-26T13:23:27.903Z,22.52
2023-03-26T13:26:24.051Z,22.43
2023-03-26T13:28:55.685Z,22.27
2023-03-26T13:31:49.368Z,22.30
2023-03-26T13:34:23.270Z,22.45
2023-03-26T13:37:04.432Z,22.45
2023-03-26T13:40:10.716Z,22.49
2023-03-26T13:42:47.830Z,22.52
2023-03-26T13:45:43.008Z,22.60
2023-03-26T13:48:25.828Z,22.57
2023-03-26T13:51:02.087Z,22.55
2023-03-26T13:53:43.889Z,22.58
2023-03-26T13:56:21.070Z,22.46
2023-03-26T13:59:34.711Z,22.33
2023-03-26T14:02:16.330Z,22.26
2023-03-26T14:04:51.089Z,22.07
2023-03-26T14:07:26.597Z,21.94
2023-03-26T14:10:08.680Z,21.84
2023-03-26T14:13:11.067Z,21.64
2023-03-26T14:15:59.156Z,21.36
2023-03-26T14:18:52.597Z,21.07
2023-03-26T14:21:29.434Z,20.70
2023-03-26T14:24:09.597Z,20.51
2023-03-26T14:27:08.997Z,20.47
2023-03-26T14:29:57.133Z,20.22
2023-03-26T14:33:04.402Z,19.92
2023-03-26T14:35:47.458Z,19.71
2023-03-26T14:38:21.871Z,19.55
2023-03-26T14:40:56.466Z,19.39
2023-03-26T14:43:27.742Z,19.22
2023-03-26T14:46:14.474Z,19.12
2023-03-26T14:49:05.969Z,19.01
2023-03-26T14:52:02.531Z,18.88
2023-03-26T14:54:37.253Z,18.78
2023-03-26T14:57:32.792Z,18.68
2023-03-26T15:00:39.219Z,18.56
2023-03-26T15:03:10.324Z,18.48
2023-03-26T15:05:38.770Z,18.44
2023-03-26T15:08:33.262Z,18.42
2023-03-26T15:11:14.165Z,18.34
2023-03-26T15:13:45.370Z,18.31
2023-03-26T15:16:41.591Z,18.25
2023-03-26T15:19:43.162Z,18.19
2023-03-26T15:22:38.772Z,18.13
2023-03-26T15:25:24.970Z,18.07
2023-03-26T15:28:12.396Z,18.01
2023-03-26T15:30:59.306Z,17.95
2023-03-26T15:33:48.893Z,17.89
2023-03-26T15:36:21.771Z,17.83
2023-03-26T15:38:59.776Z,17.76
2023-03-26T15:41:56.515Z,17.68
2023-03-26T15:44:43.752Z,17.59
2023-03-26T15:47:52.491Z,17.51
2023-03-26T15:50:39.587Z,17.42
2023-03-26T15:53:33.769Z,17.34
2023-03-26T15:56:15.166Z,17.25
2023-03-26T15:58:46.326Z,17.18
2023-03-26T16:01:46.463Z,17.10
2023-03-26T16:04:36.424Z,17.02
2023-03-26T16:07:11.443Z,16.93
2023-03-26T16:10:12.800Z,16.86
2023-03-26T16:12:54.094Z,16.77
2023-03-26T16:15:31.993Z,16.70
2023-03-26T16:18:22.511Z,16.62
2023-03-26T16:21:04.531Z,16.52
2023-03-26T16:23:55.477Z,16.44
2023-03-26T16:26:45.687Z,16.35
2023-03-26T16:29:18.408Z,16.27
2023-03-26T16:32:28.918Z,16.18
2023-03-26T16:35:05.390Z,16.10
2023-03-26T16:37:40.016Z,16.02
2023-03-26T16:40:23.680Z,15.94
2023-03-26T16:43:16.921Z,15.85
2023-03-26T16:46:17.376Z,15.76
2023-03-26T16:49:24.533Z,15.72
2023-03-26T16:52:20.669Z,15.66
2023-03-26T16:55:16.390Z,15.60
2023-03-26T16:57:53.372Z,15.53
2023-03-26T17:00:45.088Z,15.47
2023-03-26T17:03:32.185Z,15.40
2023-03-26T17:06:12.771Z,15.35
2023-03-26T17:08:59.296Z,15.31
2023-03-26T17:11:58.299Z,15.28
2023-03-26T17:15:06.215Z,15.25
2023-03-26T17:18:09.259Z,15.19
2023-03-26T17:20:59.867Z,15.06
2023-03-26T17:23:49.981Z,14.89
2023-03-26T17:26:39.841Z,14.71
2023-03-26T17:29:08.219Z,14.52
2023-03-26T17:31:58.927Z,14.36
2023-03-26T17:34:40.268Z,14.18
2023-03-26T17:37:35.742Z,14.04
2023-03-26T17:40:12.580Z,13.89
2023-03-26T17:43:01.870Z,13.78
2023-03-26T17:45:35.570Z,13.68
2023-03-26T17:48:10.923Z,13.60
2023-03-26T17:50:48.730Z,13.53
2023-03-26T17:53:37.138Z,13.45
2023-03-26T17:56:15.068Z,13.36
2023-03-26T17:58:48.657Z,13.29
2023-03-26T18:01:27.390Z,13.22
2023-03-26T18:04:00.191Z,13.16
2023-03-26T18:06:50.064Z,13.09
2023-03-26T18:09:49.567Z,13.02
2023-03-26T18:12:24.505Z,12.96
2023-03-26T18:15:11.419Z,12.91
2023-03-26T18:17:44.492Z,12.83
2023-03-26T18:20:25.227Z,12.75
2023-03-26T18:22:54.683Z,12.69
2023-03-26T18:25:32.279Z,12.63
2023-03-26T18:28:02.138Z,12.57
2023-03-26T18:30:30.673Z,12.52
2023-03-26T18:33:05.410Z,12.46
2023-03-26T18:35:46.338Z,12.39
2023-03-26T18:38:36.438Z,12.30
2023-03-26T18:41:30.466Z,12.21
2023-03-26T18:44:04.864Z,12.12
2023-03-26T18:46:34.301Z,12.02
2023-03-26T18:49:03.255Z,11.95
2023-03-26T18:51:36.494Z,11.86
2023-03-26T18:54:21.616Z,11.76
2023-03-26T18:56:51.372Z,11.67
2023-03-26T18:59:32.226Z,11.57
2023-03-26T19:02:05.625Z,11.48
2023-03-26T19:04:35.212Z,11.39
2023-03-26T19:07:10.063Z,11.30
2023-03-26T19:09:39.070Z,11.23
2023-03-26T19:12:26.052Z,11.16
2023-03-26T19:15:08.021Z,11.08
2023-03-26T19:17:48.447Z,11.00
2023-03-26T19:20:22.731Z,10.92
2023-03-26T19:22:52.757Z,10.85
2023-03-26T19:25:39.040Z,10.79
2023-03-26T19:28:17.236Z,10.71
2023-03-26T19:30:46.157Z,10.64
2023-03-26T19:33:18.571Z,10.56
2023-03-26T19:36:01.900Z,10.48
2023-03-26T19:38:39.238Z,10.40
2023-03-26T19:41:20.764Z,10.33
2023-03-26T19:43:55.832Z,10.26
2023-03-26T19:46:26.677Z,10.21
2023-03-26T19:48:58.168Z,10.16
2023-03-26T19:51:37.382Z,10.11
2023-03-26T19:54:16.654Z,10.05
2023-03-26T19:56:44.831Z,10.00
2023-03-26T19:59:14.410Z,9.95
2023-03-26T20:01:42.688Z,9.91
2023-03-26T20:04:12.491Z,9.87
2023-03-26T20:06:44.217Z,9.82
2023-03-26T20:09:13.744Z,9.79
2023-03-26T20:11:42.559Z,9.75
2023-03-26T20:14:17.223Z,9.71
2023-03-26T20:16:46.168Z,9.68
2023-03-26T20:19:15.566Z,9.65
2023-03-26T20:21:45.009Z,9.61
2023-03-26T20:24:16.510Z,9.58
2023-03-26T20:26:46.664Z,9.53
2023-03-26T20:29:15.636Z,9.49
2023-03-26T20:31:44.460Z,9.45
2023-03-26T20:34:19.865Z,9.41
2023-03-26T20:36:54.455Z,9.35
2023-03-26T20:39:25.418Z,9.29
2023-03-26T20:41:55.061Z,9.23
2023-03-26T20:44:23.831Z,9.17
2023-03-26T20:46:52.635Z,9.12
2023-03-26T20:49:22.383Z,9.06
2023-03-26T20:51:51.013Z,9.01
2023-03-26T20:54:25.479Z,8.96
2023-03-26T20:56:54.875Z,8.92
2023-03-26T20:59:27.074Z,8.88
2023-03-26T21:01:58.099Z,8.85
2023-03-26T21:04:27.802Z,8.81
2023-03-26T21:07:07.270Z,8.77
2023-03-26T21:09:45.027Z,8.72
2023-03-26T21:12:30.474Z,8.69
2023-03-26T21:14:59.597Z,8.64
2023-03-26T21:17:28.574Z,8.59
2023-03-26T21:20:00.539Z,8.50
2023-03-26T21:22:34.027Z,8.44
2023-03-26T21:25:05.778Z,8.38
2023-03-26T21:27:52.383Z,8.30
2023-03-26T21:30:21.071Z,8.21
2023-03-26T21:32:49.948Z,8.12
2023-03-26T21:35:18.866Z,8.04
2023-03-26T21:37:50.804Z,7.96
2023-03-26T21:40:21.184Z,7.87
2023-03-26T21:42:52.275Z,7.78
2023-03-26T21:45:22.099Z,7.70
2023-03-26T21:47:50.945Z,7.62
2023-03-26T21:50:22.260Z,7.55
2023-03-26T21:52:51.868Z,7.47
2023-03-26T21:55:22.977Z,7.40
2023-03-26T21:58:04.220Z,7.34
2023-03-26T22:00:46.088Z,7.30
2023-03-26T22:03:59.312Z,7.26
2023-03-26T22:06:56.863Z,7.23
2023-03-26T22:09:33.931Z,7.21
2023-03-26T22:12:05.745Z,7.22
2023-03-26T22:14:34.610Z,7.24
2023-03-26T22:17:03.075Z,7.26
2023-03-26T22:19:31.724Z,7.28
2023-03-26T22:22:00.755Z,7.30
2023-03-26T22:24:29.137Z,7.32
2023-03-26T22:26:57.310Z,7.33
2023-03-26T22:29:25.796Z,7.34
2023-03-26T22:31:53.967Z,7.32
2023-03-26T22:34:23.784Z,7.32
2023-03-26T22:36:53.492Z,7.30
2023-03-26T22:39:21.971Z,7.26
2023-03-26T22:41:50.299Z,7.20
2023-03-26T22:44:20.476Z,7.15
2023-03-26T22:46:51.725Z,7.10
2023-03-26T22:49:21.904Z,7.05
2023-03-26T22:51:50.930Z,6.99
2023-03-26T22:54:19.417Z,6.94
2023-03-26T22:56:48.020Z,6.88
2023-03-26T22:59:16.478Z,6.83
2023-03-26T23:01:45.764Z,6.77
2023-03-26T23:04:31.658Z,6.72
2023-03-26T23:07:00.883Z,6.67
2023-03-26T23:09:29.757Z,6.64
2023-03-26T23:11:57.960Z,6.61
2023-03-26T23:14:26.524Z,6.62
2023-03-26T23:16:57.557Z,6.63
2023-03-26T23:19:25.918Z,6.65
2023-03-26T23:21:54.117Z,6.68
2023-03-26T23:24:22.393Z,6.70
2023-03-26T23:26:51.374Z,6.73
2023-03-26T23:29:20.105Z,6.74
2023-03-26T23:31:48.431Z,6.76
2023-03-26T23:34:17.247Z,6.78
2023-03-26T23:36:45.717Z,6.76
2023-03-26T23:39:14.106Z,6.75
2023-03-26T23:41:42.583Z,6.73
2023-03-26T23:44:14.641Z,6.70
2023-03-26T23:46:44.844Z,6.66
2023-03-26T23:49:13.860Z,6.62
2023-03-26T23:51:42.342Z,6.57
2023-03-26T23:54:11.844Z,6.50
2023-03-26T23:56:40.379Z,6.43
2023-03-26T23:59:08.916Z,6.37
